Time;durP1;ratioP1;P1;durP2;ratioP2;P2;SDS_P1;SDS_P2;PMS_P1;PMS_P2;Temp;Humidity;BMP_temperature;BMP_pressure;BME280_temperature;BME280_humidity;BME280_pressure;Samples;Min_cycle;Max_cycle;Signal;HPM_P1;HPM_P2
2022/02/24 00:00:28;;;;;;;9.33;6.97;;;0.80;92.80;;;-0.69;88.77;98502.47;5037392;28;20434;-78
2022/02/24 00:02:55;;;;;;;12.90;7.20;;;0.80;92.00;;;-0.81;88.65;98500.88;5035536;28;20539;-79
2022/02/24 00:05:22;;;;;;;10.97;6.53;;;0.80;92.00;;;-0.79;89.21;98480.34;5037003;28;20534;-78
2022/02/24 00:07:49;;;;;;;13.87;7.47;;;0.80;92.30;;;-0.80;88.63;98483.97;5036043;28;20445;-81
2022/02/24 00:10:17;;;;;;;14.53;7.00;;;0.80;92.10;;;-0.93;89.27;98487.69;5036951;28;20525;-81
2022/02/24 00:12:45;;;;;;;8.70;6.20;;;0.70;91.60;;;-0.82;89.71;98507.16;5037002;28;20453;-85
2022/02/24 00:15:13;;;;;;;9.93;7.40;;;0.70;93.30;;;-0.87;89.49;98508.38;5036693;28;20481;-70
2022/02/24 00:17:41;;;;;;;11.73;6.70;;;0.70;92.50;;;-0.96;89.16;98503.00;5022738;28;20533;-83
2022/02/24 00:20:11;;;;;;;10.67;7.00;;;0.60;92.20;;;-0.90;89.33;98505.97;5050699;28;20434;-84
2022/02/24 00:22:38;;;;;;;10.70;7.40;;;0.60;93.70;;;-0.87;88.77;98500.41;5045629;28;20473;-84
2022/02/24 00:25:07;;;;;;;9.40;7.10;;;0.60;92.90;;;-0.97;88.93;98499.53;5046375;28;20431;-84
2022/02/24 00:27:35;;;;;;;15.40;7.60;;;0.60;92.30;;;-1.05;89.01;98473.66;5038252;28;20439;-84
2022/02/24 00:30:03;;;;;;;11.67;7.40;;;0.60;92.20;;;-1.44;89.28;98428.31;5038418;28;20986;-80
2022/02/24 00:32:31;;;;;;;9.60;6.10;;;0.50;92.00;;;-1.16;89.54;98468.41;5020577;28;20461;-79
2022/02/24 00:34:58;;;;;;;11.70;7.30;;;0.50;92.70;;;-1.08;89.35;98483.69;5020267;28;20470;-80
2022/02/24 00:37:25;;;;;;;8.50;6.87;;;0.50;92.60;;;-1.92;89.35;98366.00;5036644;28;20474;-79
2022/02/24 00:39:52;;;;;;;11.17;7.50;;;0.30;93.00;;;-1.18;89.51;98478.31;5018817;28;20493;-77
2022/02/24 00:42:19;;;;;;;12.77;7.67;;;0.40;93.70;;;-1.09;89.61;98480.16;5036566;28;20489;-77
2022/02/24 00:44:46;;;;;;;8.40;5.83;;;0.40;93.60;;;-1.12;89.73;98476.94;5036543;28;20525;-79
2022/02/24 00:47:13;;;;;;;13.40;8.00;;;0.40;93.20;;;-1.14;89.74;98469.13;5018950;28;21001;-78
2022/02/24 00:49:41;;;;;;;10.60;6.83;;;0.40;93.70;;;-1.19;89.53;98450.94;5035737;28;20531;-76
2022/02/24 00:52:09;;;;;;;11.03;6.53;;;0.40;93.40;;;-1.02;89.75;98453.97;5036188;28;20466;-76
2022/02/24 00:54:36;;;;;;;13.87;6.73;;;0.50;93.30;;;-1.09;89.53;98436.91;5017687;28;20470;-76
2022/02/24 00:57:04;;;;;;;15.80;7.43;;;0.60;92.70;;;-1.01;90.09;98451.19;5017877;28;20446;-76
2022/02/24 00:59:32;;;;;;;9.80;6.30;;;0.60;93.00;;;-0.96;89.09;98437.53;5035819;28;20439;-77
2022/02/24 01:01:58;;;;;;;9.03;5.83;;;0.60;92.70;;;-1.40;89.16;98370.56;5035668;28;20442;-75
2022/02/24 01:04:25;;;;;;;9.10;6.00;;;0.60;92.20;;;-0.93;88.83;98431.09;5017434;28;20445;-77
2022/02/24 01:06:54;;;;;;;11.33;6.43;;;0.70;92.20;;;-0.88;88.68;98429.75;5036011;28;20526;-77
2022/02/24 01:09:21;;;;;;;6.67;5.80;;;0.70;91.90;;;-0.89;88.58;98432.56;5017862;28;20530;-78
2022/02/24 01:11:48;;;;;;;8.57;5.60;;;0.70;91.70;;;-0.91;88.99;98430.00;5035960;28;20474;-79
2022/02/24 01:14:15;;;;;;;14.27;6.73;;;0.70;91.80;;;-0.86;88.84;98422.50;5018216;28;20473;-79
2022/02/24 01:16:42;;;;;;;7.70;5.40;;;0.70;91.80;;;-0.86;88.43;98416.34;5035293;28;20492;-78
2022/02/24 01:19:09;;;;;;;14.50;6.60;;;0.70;91.60;;;-0.96;88.53;98411.00;5017664;28;20447;-76
2022/02/24 01:21:36;;;;;;;7.20;5.10;;;0.70;91.60;;;-0.81;88.96;98414.13;5035279;28;20446;-79
2022/02/24 01:24:05;;;;;;;8.63;5.07;;;0.70;92.00;;;-0.83;88.36;98416.09;5035387;28;21005;-79
2022/02/24 01:26:32;;;;;;;7.23;5.23;;;0.80;91.60;;;-0.81;88.23;98424.75;5034186;28;20923;-79
2022/02/24 01:28:59;;;;;;;8.00;5.33;;;0.80;91.40;;;-0.87;88.70;98420.81;5036634;28;20988;-81
2022/02/24 01:31:27;;;;;;;10.07;5.23;;;0.70;92.00;;;-0.83;88.69;98421.41;5034800;28;20803;-81
2022/02/24 01:33:54;;;;;;;7.80;5.50;;;0.70;92.00;;;-0.81;88.65;98413.31;5017808;28;20526;-83
2022/02/24 01:36:21;;;;;;;11.63;5.13;;;0.70;91.70;;;-0.78;88.06;98413.03;5017014;28;20479;-78
2022/02/24 01:38:48;;;;;;;11.43;5.90;;;0.70;91.50;;;-0.75;88.13;98410.97;5035048;28;20501;-78
2022/02/24 01:41:16;;;;;;;8.20;5.63;;;0.80;91.00;;;-0.77;88.09;98404.94;5035140;28;20949;-80
2022/02/24 01:43:47;;;;;;;12.10;5.33;;;0.80;90.70;;;-0.87;88.35;98394.28;5035062;28;20557;-80
2022/02/24 01:46:14;;;;;;;8.20;5.30;;;0.70;91.00;;;-0.99;88.87;98390.03;5035192;28;20481;-80
2022/02/24 01:48:41;;;;;;;8.50;5.07;;;0.60;92.20;;;-0.79;88.69;98395.44;5035227;28;20454;-79
2022/02/24 01:51:09;;;;;;;7.73;5.30;;;0.70;91.80;;;-0.76;88.20;98389.84;5033783;28;20973;-78
2022/02/24 01:53:37;;;;;;;13.00;5.67;;;0.80;91.30;;;-0.81;88.51;98389.44;5034618;28;21017;-79
2022/02/24 01:56:05;;;;;;;8.30;5.10;;;0.70;91.40;;;-0.80;88.51;98375.19;5017524;28;20455;-79
2022/02/24 01:58:33;;;;;;;7.90;5.70;;;0.80;91.20;;;-0.72;88.34;98370.03;5034746;28;20439;-79
2022/02/24 02:01:01;;;;;;;5.83;5.00;;;0.80;91.20;;;-0.72;88.11;98364.72;5034913;28;20522;-75
2022/02/24 02:03:28;;;;;;;8.83;5.47;;;0.90;90.70;;;-0.69;87.39;98351.19;5016878;28;20497;-75
2022/02/24 02:05:56;;;;;;;10.40;5.90;;;0.80;90.90;;;-0.78;87.78;98354.66;5034430;28;20462;-76
2022/02/24 02:08:24;;;;;;;9.60;5.80;;;0.80;90.70;;;-0.83;88.50;98348.91;5034388;28;20510;-76
2022/02/24 02:10:50;;;;;;;7.07;5.57;;;0.80;91.10;;;-0.94;88.92;98353.34;5034751;28;20447;-76
2022/02/24 02:13:17;;;;;;;5.43;4.90;;;0.60;91.90;;;-0.88;88.63;98344.84;5016937;28;20442;-77
2022/02/24 02:15:46;;;;;;;8.77;5.20;;;0.60;92.60;;;-0.82;88.63;98342.66;5017006;28;20450;-76
2022/02/24 02:18:13;;;;;;;7.80;5.47;;;0.70;92.30;;;-0.78;88.33;98338.75;5016961;28;20474;-76
2022/02/24 02:20:41;;;;;;;12.77;6.40;;;0.70;91.60;;;-0.78;88.00;98320.16;5034453;28;20434;-76
2022/02/24 02:23:08;;;;;;;8.87;5.50;;;0.80;91.70;;;-0.72;88.35;98327.56;5034192;28;20467;-76
2022/02/24 02:25:35;;;;;;;10.93;5.70;;;0.80;91.30;;;-0.61;87.70;98332.78;5016372;28;20447;-77
2022/02/24 02:28:03;;;;;;;11.83;5.87;;;0.80;91.40;;;-0.64;87.83;98322.44;5034431;28;20922;-77
2022/02/24 02:30:30;;;;;;;6.67;5.20;;;0.90;90.90;;;-0.63;87.48;98316.16;5034184;28;20446;-78
2022/02/24 02:32:58;;;;;;;10.23;5.90;;;0.90;90.80;;;-0.67;87.88;98317.41;5033850;28;20778;-78
2022/02/24 02:35:26;;;;;;;7.13;4.87;;;0.90;90.70;;;-0.62;87.43;98315.19;5034916;28;20474;-77
2022/02/24 02:37:54;;;;;;;9.07;5.60;;;0.90;90.70;;;-0.67;87.47;98305.94;5033904;28;20501;-77
2022/02/24 02:40:22;;;;;;;10.00;6.20;;;0.90;90.70;;;-0.62;88.09;98304.56;5034267;28;20936;-77
2022/02/24 02:42:50;;;;;;;8.87;5.07;;;0.90;91.00;;;-0.66;87.24;98304.97;5034349;28;20520;-80
2022/02/24 02:45:18;;;;;;;8.43;5.73;;;0.90;90.40;;;-0.74;88.18;98309.16;5033821;28;20442;-79
2022/02/24 02:47:46;;;;;;;11.97;5.47;;;0.80;91.00;;;-0.76;88.50;98302.28;5035147;28;20525;-78
2022/02/24 02:50:14;;;;;;;7.37;5.60;;;0.80;91.60;;;-1.30;88.25;98244.19;5015978;28;20447;-80
2022/02/24 02:52:41;;;;;;;11.40;5.90;;;0.70;91.30;;;-0.81;89.02;98309.84;5016366;28;20458;-78
2022/02/24 02:55:12;;;;;;;9.87;5.57;;;0.70;92.50;;;-0.63;88.00;98294.06;5032560;28;20542;-78
2022/02/24 02:57:40;;;;;;;8.90;4.90;;;0.80;91.60;;;-0.61;87.59;98282.34;5034316;28;20522;-79
2022/02/24 03:00:12;;;;;;;9.17;5.00;;;0.90;91.20;;;-0.54;87.09;98272.00;5034028;28;20497;-80
2022/02/24 03:02:39;;;;;;;9.83;5.60;;;0.90;90.70;;;-0.59;87.21;98272.44;5015876;28;20850;-78
2022/02/24 03:05:07;;;;;;;8.90;5.10;;;1.00;90.80;;;-0.60;87.43;98268.09;5034083;28;20436;-78
2022/02/24 03:07:35;;;;;;;8.43;5.63;;;0.90;90.50;;;-0.56;87.45;98263.34;5033672;28;20477;-78
2022/02/24 03:10:02;;;;;;;7.33;4.87;;;1.00;90.70;;;-0.45;86.83;98255.28;5016034;28;20517;-78
2022/02/24 03:12:35;;;;;;;7.30;5.00;;;1.10;90.30;;;-0.46;86.96;98252.75;5017045;28;20442;-76
2022/02/24 03:15:02;;;;;;;6.90;4.40;;;1.10;90.00;;;-0.44;86.66;98245.47;5033736;28;20434;-77
2022/02/24 03:17:29;;;;;;;7.30;4.40;;;1.10;90.00;;;-0.80;86.26;98169.03;5033868;28;20972;-76
2022/02/24 03:19:56;;;;;;;9.40;4.80;;;1.20;89.40;;;-0.33;86.31;98234.72;5016352;28;20462;-77
2022/02/24 03:22:22;;;;;;;6.17;4.47;;;1.20;89.30;;;-0.36;86.12;98228.84;5034139;28;20445;-76
2022/02/24 03:24:49;;;;;;;10.10;5.53;;;1.20;89.50;;;-0.33;86.14;98226.75;5015755;28;20892;-76
2022/02/24 03:27:17;;;;;;;6.33;4.37;;;1.20;89.10;;;-0.26;86.45;98218.22;5033757;28;20510;-76
2022/02/24 03:29:45;;;;;;;8.43;4.97;;;1.30;89.30;;;-0.18;85.88;98227.13;5016234;28;20855;-77
2022/02/24 03:32:12;;;;;;;9.40;5.07;;;1.30;88.70;;;-0.04;85.69;98219.72;5033595;28;20470;-78
2022/02/24 03:34:40;;;;;;;9.13;4.80;;;1.40;88.10;;;-0.06;85.01;98213.72;5033865;28;20485;-76
2022/02/24 03:37:07;;;;;;;7.13;4.13;;;1.50;86.80;;;-0.01;84.54;98214.97;5033637;28;20434;-77
2022/02/24 03:39:34;;;;;;;14.03;4.87;;;1.50;86.60;;;0.12;84.69;98205.84;5015580;28;20525;-77
2022/02/24 03:42:01;;;;;;;7.60;4.80;;;1.60;86.40;;;0.13;84.15;98211.00;5033735;28;20957;-77
2022/02/24 03:44:28;;;;;;;9.00;4.50;;;1.70;85.80;;;0.11;84.39;98209.50;5034186;28;20512;-77
2022/02/24 03:46:57;;;;;;;6.60;4.10;;;1.70;85.30;;;0.20;84.27;98211.25;5016339;28;20517;-78
2022/02/24 03:49:24;;;;;;;11.33;4.70;;;1.70;85.30;;;0.26;83.70;98216.03;5017467;28;20781;-78
2022/02/24 03:51:51;;;;;;;5.30;3.70;;;1.80;84.70;;;0.27;83.92;98207.06;5036293;28;20442;-81
2022/02/24 03:54:18;;;;;;;6.17;4.20;;;1.80;84.60;;;0.30;83.51;98189.16;5037525;28;20933;-82
2022/02/24 03:56:45;;;;;;;10.80;4.30;;;1.90;84.10;;;0.33;83.18;98199.47;5037359;28;20442;-81
2022/02/24 03:59:12;;;;;;;7.67;4.10;;;1.90;84.00;;;0.49;83.08;98194.38;5037573;28;20488;-82
2022/02/24 04:01:39;;;;;;;5.70;4.13;;;2.00;83.60;;;0.58;82.21;98200.63;5037775;28;20442;-81
2022/02/24 04:04:08;;;;;;;6.80;4.80;;;2.00;83.00;;;0.66;82.19;98199.91;5020419;28;20490;-82
2022/02/24 04:06:35;;;;;;;10.10;4.70;;;2.10;82.30;;;0.67;81.77;98190.94;5019368;28;20525;-82
2022/02/24 04:09:02;;;;;;;5.47;4.40;;;2.20;82.10;;;0.82;80.96;98186.78;5036374;28;20438;-82
2022/02/24 04:11:29;;;;;;;8.17;4.63;;;2.30;81.60;;;0.87;80.80;98183.69;5041876;28;20440;-82
2022/02/24 04:13:56;;;;;;;7.83;4.00;;;2.30;81.10;;;0.81;80.73;98174.47;5060314;28;20468;-81
2022/02/24 04:16:23;;;;;;;8.97;4.27;;;2.40;80.90;;;0.90;80.40;98183.38;5043097;28;20465;-82
2022/02/24 04:18:50;;;;;;;6.60;3.90;;;2.40;80.50;;;0.92;80.40;98188.56;5046843;28;20446;-82
2022/02/24 04:21:18;;;;;;;6.30;3.57;;;2.40;80.50;;;0.88;80.37;98149.94;5041637;28;20521;-83
2022/02/24 04:23:45;;;;;;;9.70;4.80;;;2.50;80.60;;;1.24;79.26;98188.06;5040366;28;20765;-82
2022/02/24 04:26:12;;;;;;;8.20;4.13;;;2.70;79.80;;;1.20;79.34;98184.03;5020853;28;20930;-82
2022/02/24 04:28:39;;;;;;;7.77;4.30;;;2.70;79.40;;;1.30;79.09;98183.13;5037310;28;21004;-81
2022/02/24 04:31:06;;;;;;;4.90;3.10;;;2.70;79.20;;;1.26;79.17;98175.44;5037455;28;20512;-81
2022/02/24 04:33:33;;;;;;;5.60;4.30;;;2.70;79.20;;;1.20;79.23;98173.38;5035399;28;20818;-82
2022/02/24 04:36:00;;;;;;;5.60;4.00;;;2.70;79.10;;;1.35;79.23;98176.34;5021361;28;20478;-80
2022/02/24 04:38:28;;;;;;;11.87;4.60;;;2.70;79.40;;;1.24;79.30;98176.56;5039779;28;20470;-81
2022/02/24 04:40:55;;;;;;;9.60;4.20;;;2.70;79.20;;;1.23;79.13;98174.91;5038149;28;20464;-81
2022/02/24 04:43:22;;;;;;;7.80;4.70;;;2.70;79.20;;;1.29;79.11;98174.31;5035134;28;20513;-81
2022/02/24 04:45:50;;;;;;;9.57;4.30;;;2.70;79.10;;;1.17;79.35;98175.53;5018832;28;20458;-81
2022/02/24 04:48:18;;;;;;;5.83;4.00;;;2.70;79.10;;;1.11;79.72;98161.81;5037181;28;20453;-81
2022/02/24 04:50:46;;;;;;;4.50;3.80;;;2.70;79.30;;;0.75;79.67;98119.22;5037181;28;20442;-81
2022/02/24 04:53:13;;;;;;;6.47;3.57;;;2.60;79.30;;;1.01;80.13;98171.72;5019343;28;20519;-80
2022/02/24 04:55:41;;;;;;;11.93;4.00;;;2.60;79.50;;;0.96;80.54;98176.63;5036275;28;20529;-80
2022/02/24 04:58:09;;;;;;;5.80;3.80;;;2.50;79.90;;;0.86;79.93;98138.63;5036108;28;20534;-83
2022/02/24 05:00:37;;;;;;;5.97;4.17;;;2.50;80.00;;;0.99;80.24;98171.03;5036045;28;20526;-82
2022/02/24 05:03:04;;;;;;;5.20;4.50;;;2.50;80.00;;;0.91;80.60;98165.59;5036209;28;20525;-79
2022/02/24 05:05:31;;;;;;;7.03;4.20;;;2.40;80.80;;;0.88;80.34;98160.59;5017578;28;20478;-80
2022/02/24 05:07:59;;;;;;;5.13;3.37;;;2.40;80.50;;;0.86;81.07;98163.38;5036048;28;20466;-84
2022/02/24 05:10:27;;;;;;;7.00;4.23;;;2.30;80.70;;;0.83;80.50;98153.06;5018660;28;20438;-81
2022/02/24 05:12:56;;;;;;;6.33;4.17;;;2.30;80.80;;;0.82;81.27;98146.88;5035284;28;20478;-79
2022/02/24 05:15:23;;;;;;;7.30;4.30;;;2.30;81.10;;;0.81;81.50;98155.84;5018710;28;20445;-80
2022/02/24 05:17:50;;;;;;;7.10;3.70;;;2.30;81.60;;;0.77;81.39;98127.88;5018392;28;20522;-81
2022/02/24 05:20:17;;;;;;;5.23;3.37;;;2.30;81.50;;;0.78;81.51;98134.88;5018626;28;20537;-79
2022/02/24 05:22:45;;;;;;;8.40;4.60;;;2.30;81.40;;;0.95;80.97;98151.00;5017729;28;20446;-82
2022/02/24 05:25:14;;;;;;;8.83;4.70;;;2.40;81.50;;;0.97;80.77;98136.56;5017688;28;20470;-81
2022/02/24 05:27:42;;;;;;;10.43;4.20;;;2.40;81.00;;;0.90;80.35;98132.81;5035318;28;20469;-82
2022/02/24 05:30:14;;;;;;;8.13;3.63;;;2.50;80.50;;;0.95;80.68;98129.72;5017988;28;20473;-81
2022/02/24 05:32:41;;;;;;;4.23;3.83;;;2.50;80.60;;;1.06;80.20;98142.81;5036092;28;20508;-81
2022/02/24 05:35:09;;;;;;;8.07;4.07;;;2.60;80.10;;;1.05;80.32;98133.16;5034438;28;20439;-81
2022/02/24 05:37:37;;;;;;;8.60;3.50;;;2.60;80.20;;;1.10;80.29;98133.53;5034441;28;20856;-83
2022/02/24 05:40:06;;;;;;;7.10;4.10;;;2.60;80.30;;;1.13;80.22;98143.03;5034798;28;20447;-85
2022/02/24 05:42:33;;;;;;;10.77;4.27;;;2.60;80.20;;;1.15;80.18;98135.75;5018063;28;20477;-85
2022/02/24 05:45:00;;;;;;;8.53;4.60;;;2.60;80.20;;;1.13;80.21;98135.88;5017858;28;20459;-83
2022/02/24 05:47:29;;;;;;;21.27;9.83;;;2.60;80.30;;;1.29;81.13;98136.19;5036970;28;20508;-83
2022/02/24 05:49:57;;;;;;;7.70;5.27;;;2.70;81.80;;;1.35;80.10;98136.41;5018134;28;20430;-83
2022/02/24 05:52:24;;;;;;;4.50;3.47;;;2.70;80.60;;;1.33;79.92;98134.88;5017833;28;20485;-82
2022/02/24 05:54:53;;;;;;;6.10;4.37;;;2.80;80.00;;;1.44;79.58;98128.47;5035657;28;20488;-83
2022/02/24 05:57:20;;;;;;;7.30;4.30;;;2.80;79.80;;;1.49;79.80;98136.88;5017878;28;20549;-82
2022/02/24 05:59:47;;;;;;;5.60;4.20;;;2.90;79.90;;;1.54;79.13;98129.22;5018326;28;20496;-82
2022/02/24 06:02:14;;;;;;;8.07;3.97;;;3.00;79.60;;;1.65;78.96;98126.31;5035565;28;20533;-82
2022/02/24 06:04:42;;;;;;;3.90;3.50;;;3.10;79.50;;;1.60;78.35;98128.63;5036136;28;20501;-83
2022/02/24 06:07:09;;;;;;;7.00;4.37;;;3.10;78.90;;;1.57;78.95;98136.91;5017997;28;21069;-83
2022/02/24 06:09:36;;;;;;;10.80;4.90;;;3.10;79.10;;;1.74;78.75;98129.88;5035415;28;20534;-86
2022/02/24 06:12:04;;;;;;;6.03;4.20;;;3.10;79.20;;;1.70;78.61;98132.00;5047468;28;20438;-86
2022/02/24 06:14:31;;;;;;;8.27;4.10;;;3.10;78.80;;;1.69;78.50;98127.69;5028531;28;20438;-84
2022/02/24 06:16:59;;;;;;;6.53;4.27;;;3.20;78.80;;;1.84;77.86;98135.09;5035394;28;20926;-85
2022/02/24 06:19:26;;;;;;;5.97;4.80;;;3.30;78.60;;;1.73;78.19;98128.22;5037047;28;20533;-88
2022/02/24 06:21:55;;;;;;;4.77;3.43;;;3.20;78.30;;;1.84;78.29;98111.97;5018549;28;20617;-84
2022/02/24 06:24:22;;;;;;;6.03;4.03;;;3.30;79.00;;;1.75;78.28;98120.91;5018807;28;20494;-83
2022/02/24 06:26:49;;;;;;;6.97;4.60;;;3.30;78.30;;;1.68;78.56;98120.69;5017754;28;20787;-81
2022/02/24 06:29:16;;;;;;;9.23;4.73;;;3.20;78.60;;;1.63;77.93;98068.88;5038268;28;20492;-83
2022/02/24 06:31:43;;;;;;;10.23;4.83;;;3.30;78.50;;;1.84;78.53;98111.13;5039380;28;20478;-87
2022/02/24 06:34:10;;;;;;;8.10;4.87;;;3.30;78.60;;;1.76;78.22;98106.59;5038276;28;20477;-86
2022/02/24 06:36:37;;;;;;;7.10;4.93;;;3.30;78.50;;;1.88;78.16;98114.31;5038964;28;20477;-86
2022/02/24 06:39:06;;;;;;;5.80;4.87;;;3.30;78.60;;;2.10;77.71;98103.09;5021035;28;20439;-85
2022/02/24 06:41:33;;;;;;;6.77;5.00;;;3.50;78.60;;;2.20;77.12;98092.34;5036198;28;20504;-87
2022/02/24 06:44:00;;;;;;;9.80;5.63;;;3.60;78.30;;;2.40;76.86;98082.22;5018668;28;20446;-84
2022/02/24 06:46:27;;;;;;;8.00;4.90;;;3.80;79.00;;;2.24;76.76;98075.03;5017206;28;20476;-83
2022/02/24 06:48:54;;;;;;;11.23;5.30;;;3.80;77.40;;;2.19;77.83;98079.97;5017788;28;20478;-73
2022/02/24 06:51:21;;;;;;;7.20;4.50;;;3.70;78.00;;;2.24;76.79;98077.69;5034132;28;20530;-83
2022/02/24 06:53:48;;;;;;;8.90;5.20;;;3.70;77.60;;;2.43;76.09;98085.56;5033933;28;20529;-83
2022/02/24 06:56:17;;;;;;;4.93;4.47;;;3.80;77.50;;;2.35;76.31;98067.72;5034199;28;20934;-82
2022/02/24 06:58:44;;;;;;;9.33;5.23;;;3.80;77.10;;;2.25;76.60;98081.16;5017506;28;20513;-86
2022/02/24 07:01:14;;;;;;;8.57;4.50;;;3.80;77.40;;;2.51;76.53;98088.28;5018868;28;20484;-74
2022/02/24 07:03:42;;;;;;;10.07;5.33;;;3.80;77.40;;;2.39;76.75;98087.75;5019301;28;20789;-91
2022/02/24 07:06:09;;;;;;;5.30;4.40;;;3.80;77.30;;;2.54;75.73;98088.78;5037212;28;20486;-87
2022/02/24 07:08:36;;;;;;;6.07;4.43;;;3.90;77.10;;;2.72;75.92;98082.50;5038443;28;20857;-89
2022/02/24 07:11:04;;;;;;;7.20;5.00;;;4.10;77.20;;;2.47;76.08;98082.41;5040925;28;20957;-91
2022/02/24 07:13:32;;;;;;;12.67;5.60;;;4.00;76.80;;;2.59;76.24;98072.31;5025283;28;20447;-91
2022/02/24 07:16:02;;;;;;;8.17;5.13;;;4.00;77.00;;;2.95;74.81;98074.69;5040402;28;20477;-85
2022/02/24 07:18:30;;;;;;;9.40;5.40;;;4.30;77.10;;;3.30;75.42;98077.22;5049271;28;20461;-87
2022/02/24 07:20:57;;;;;;;12.30;4.97;;;4.50;78.30;;;2.95;74.69;98071.16;5046878;28;20450;-85
2022/02/24 07:23:24;;;;;;;6.97;5.20;;;4.40;76.10;;;3.04;74.31;98070.19;5055969;28;20452;-85
2022/02/24 07:25:53;;;;;;;6.10;5.50;;;4.40;75.80;;;3.09;73.93;98059.84;5040639;28;20472;-84
2022/02/24 07:28:20;;;;;;;6.83;5.50;;;4.50;75.90;;;3.14;73.70;98055.84;5042609;28;20442;-90
2022/02/24 07:30:49;;;;;;;7.80;4.17;;;4.50;75.80;;;3.60;73.01;98045.47;5060140;28;20457;-90
2022/02/24 07:33:17;;;;;;;7.77;5.50;;;4.80;75.60;;;3.30;72.99;98030.97;5060124;28;20441;-90
2022/02/24 07:35:44;;;;;;;8.47;5.50;;;4.80;75.00;;;3.69;71.19;98046.28;5055254;28;20452;-93
2022/02/24 07:38:11;;;;;;;8.30;5.40;;;5.00;74.60;;;3.40;72.37;98029.78;5051326;28;20457;-82
2022/02/24 07:40:38;;;;;;;7.90;4.80;;;4.90;74.50;;;3.61;72.12;98030.25;5045443;28;20449;-83
2022/02/24 07:43:06;;;;;;;10.53;5.80;;;5.00;74.60;;;3.83;71.75;98024.19;5043879;28;20442;-84
2022/02/24 07:45:33;;;;;;;10.13;5.17;;;5.10;74.40;;;3.97;70.57;98021.81;5023651;28;20458;-85
2022/02/24 07:48:01;;;;;;;8.53;5.00;;;5.30;74.00;;;3.95;71.24;98015.81;5039278;28;20510;-86
2022/02/24 07:50:28;;;;;;;8.03;4.60;;;5.40;73.70;;;4.08;70.83;98036.63;5022660;28;20500;-86
2022/02/24 07:52:55;;;;;;;8.50;5.20;;;5.50;73.40;;;4.05;70.60;98028.97;5041244;28;20526;-86
2022/02/24 07:55:22;;;;;;;6.60;5.30;;;5.50;73.20;;;4.08;69.82;98028.63;5023341;28;20820;-87
2022/02/24 07:57:50;;;;;;;6.50;5.50;;;5.50;73.10;;;4.19;70.31;98022.03;5041665;28;20791;-86
2022/02/24 08:00:18;;;;;;;6.93;4.50;;;5.50;73.40;;;4.31;69.50;98014.44;5041206;28;20469;-87
2022/02/24 08:02:45;;;;;;;8.13;5.60;;;5.60;73.10;;;4.42;69.87;98015.91;5059129;28;20534;-80
2022/02/24 08:05:14;;;;;;;6.87;4.90;;;5.70;73.00;;;4.33;69.28;98023.16;5053117;28;20466;-83
2022/02/24 08:07:41;;;;;;;6.50;4.73;;;5.80;72.60;;;4.06;69.66;97977.97;5030462;28;20430;-87
2022/02/24 08:10:09;;;;;;;6.47;4.60;;;5.80;72.50;;;4.60;69.01;98031.69;5047273;28;20466;-85
2022/02/24 08:12:40;;;;;;;8.47;5.17;;;5.90;72.30;;;4.28;69.28;98030.84;5042063;28;20492;-87
2022/02/24 08:15:08;;;;;;;7.37;5.80;;;5.70;72.30;;;4.47;69.36;98022.38;5030459;28;20449;-78
2022/02/24 08:17:35;;;;;;;7.53;5.40;;;5.80;72.60;;;4.79;68.13;98022.38;5022141;28;20445;-84
2022/02/24 08:20:05;;;;;;;6.80;5.30;;;6.00;72.40;;;4.75;68.91;98016.53;5021690;28;20530;-75
2022/02/24 08:22:34;;;;;;;8.13;5.60;;;6.20;72.00;;;4.61;68.14;97967.28;5029325;28;20474;-86
2022/02/24 08:25:02;;;;;;;7.27;6.07;;;6.20;71.90;;;4.96;67.77;98012.38;5042079;28;20459;-88
2022/02/24 08:27:29;;;;;;;7.87;5.67;;;6.30;71.70;;;5.04;68.38;98014.16;5040330;28;20477;-86
2022/02/24 08:29:57;;;;;;;7.90;6.20;;;6.40;71.50;;;5.05;68.37;98008.59;5023074;28;20469;-85
2022/02/24 08:32:24;;;;;;;9.87;7.10;;;6.40;71.40;;;4.84;68.72;98011.94;5038681;28;20529;-85
2022/02/24 08:34:52;;;;;;;10.27;5.63;;;6.30;71.50;;;4.91;69.15;98020.09;5036251;28;20446;-84
2022/02/24 08:37:19;;;;;;;6.57;5.80;;;6.30;71.70;;;4.94;68.84;98014.41;5021419;28;20450;-84
2022/02/24 08:39:47;;;;;;;10.40;6.80;;;6.30;71.80;;;4.92;68.45;98019.09;5036045;28;20434;-82
2022/02/24 08:42:14;;;;;;;8.50;6.93;;;6.30;71.60;;;4.69;68.56;97987.81;5036334;28;20442;-83
2022/02/24 08:44:43;;;;;;;10.73;6.03;;;6.30;71.60;;;4.77;69.59;98006.47;5036564;28;20465;-83
2022/02/24 08:47:11;;;;;;;9.73;6.27;;;6.20;71.80;;;5.11;68.07;98004.38;5037448;28;20966;-72
2022/02/24 08:49:38;;;;;;;12.77;6.63;;;6.30;71.70;;;5.08;68.41;97994.03;5018670;28;20438;-82
2022/02/24 08:52:07;;;;;;;12.10;6.87;;;6.40;71.60;;;4.97;68.81;97989.94;5036289;28;20461;-84
2022/02/24 08:54:34;;;;;;;10.35;7.40;;;6.40;71.60;;;5.21;67.79;97990.72;5036640;28;20549;-83
2022/02/24 08:57:03;;;;;;;11.83;7.63;;;6.50;71.60;;;5.01;68.20;97985.88;5036965;28;20223;-86
2022/02/24 08:59:30;;;;;;;7.97;6.90;;;6.50;71.40;;;5.32;68.06;97982.25;5019981;28;20473;-87
2022/02/24 09:01:58;;;;;;;9.63;6.93;;;6.60;71.60;;;5.27;68.19;97981.13;5037699;28;20500;-88
2022/02/24 09:04:25;;;;;;;9.50;6.77;;;6.70;71.20;;;5.41;67.99;97974.97;5037566;28;20914;-84
2022/02/24 09:06:52;;;;;;;8.27;6.40;;;6.70;71.60;;;5.52;67.41;97973.66;5036021;28;20430;-82
2022/02/24 09:09:19;;;;;;;9.30;6.43;;;6.80;71.20;;;5.60;67.41;97968.25;5036422;28;20492;-81
2022/02/24 09:11:46;;;;;;;15.60;7.10;;;7.00;71.00;;;5.87;66.56;97962.41;5018700;28;20451;-81
2022/02/24 09:14:14;;;;;;;8.10;6.13;;;7.20;70.80;;;6.03;65.62;97964.09;5035417;28;20493;-83
2022/02/24 09:16:43;;;;;;;9.70;6.43;;;7.30;70.50;;;5.82;66.60;97957.59;5035932;28;20481;-83
2022/02/24 09:19:10;;;;;;;6.53;5.93;;;7.30;70.30;;;6.04;66.46;97957.69;5019428;28;20451;-83
2022/02/24 09:21:37;;;;;;;13.60;7.47;;;7.30;70.40;;;6.19;65.68;97947.78;5019378;28;20439;-83
2022/02/24 09:24:06;;;;;;;9.33;7.07;;;7.50;70.20;;;6.40;64.94;97951.50;5035329;28;20521;-82
2022/02/24 09:26:33;;;;;;;7.23;6.50;;;7.70;70.00;;;6.55;64.78;97950.59;5017437;28;20538;-82
2022/02/24 09:29:00;;;;;;;12.30;7.60;;;7.80;69.90;;;6.56;64.40;97945.06;5034112;28;20893;-82
2022/02/24 09:31:29;;;;;;;7.83;6.13;;;7.80;69.50;;;6.29;65.29;97936.72;5018212;28;20439;-83
2022/02/24 09:33:56;;;;;;;8.10;6.63;;;7.70;69.60;;;6.36;65.75;97936.81;5041035;28;20435;-83
2022/02/24 09:36:23;;;;;;;8.10;6.13;;;7.70;69.80;;;6.65;64.67;97929.66;5017791;28;20427;-83
2022/02/24 09:38:50;;;;;;;7.77;5.63;;;7.90;69.60;;;6.77;64.47;97933.50;5035503;28;20843;-84
2022/02/24 09:41:18;;;;;;;7.93;6.30;;;8.00;69.30;;;6.93;64.24;97931.56;5034553;28;20434;-83
2022/02/24 09:43:46;;;;;;;7.07;6.37;;;8.20;69.20;;;7.07;63.71;97921.72;5034210;28;20430;-84
2022/02/24 09:46:14;;;;;;;10.77;7.10;;;8.30;69.20;;;7.14;63.89;97922.63;5032645;28;20513;-83
2022/02/24 09:48:45;;;;;;;16.07;7.07;;;8.40;69.20;;;7.20;63.49;97921.81;5033575;28;20475;-82
2022/02/24 09:51:15;;;;;;;8.90;6.40;;;8.50;68.80;;;7.08;63.84;97918.88;5035390;28;20500;-82
2022/02/24 09:53:43;;;;;;;6.60;5.90;;;8.50;68.50;;;7.40;63.58;97915.75;5035167;28;20426;-84
2022/02/24 09:56:16;;;;;;;7.87;6.97;;;8.60;68.80;;;7.67;62.28;97910.53;5017952;28;20530;-82
2022/02/24 09:58:45;;;;;;;11.37;6.70;;;8.80;68.30;;;7.61;62.76;97905.94;5035401;28;20894;-82
2022/02/24 10:01:14;;;;;;;9.90;6.73;;;8.80;68.10;;;7.69;62.56;97897.69;5035092;28;20438;-84
2022/02/24 10:03:46;;;;;;;9.67;6.80;;;9.00;68.10;;;7.54;63.30;97900.53;5035437;28;20993;-83
2022/02/24 10:06:15;;;;;;;11.30;7.30;;;8.90;68.30;;;7.68;63.13;97889.84;5035127;28;20910;-83
2022/02/24 10:08:44;;;;;;;6.10;5.50;;;9.00;68.10;;;7.61;62.72;97892.50;5017231;28;20525;-84
2022/02/24 10:11:20;;;;;;;7.03;6.30;;;8.90;68.20;;;7.54;63.65;97888.94;5035103;28;20474;-83
2022/02/24 10:14:06;;;;;;;8.10;7.27;;;8.90;68.20;;;7.52;64.03;97883.78;5035030;28;20430;-82
2022/02/24 10:16:53;;;;;;;7.80;6.97;;;8.80;68.30;;;7.82;62.71;97883.50;5018409;28;20533;-83
2022/02/24 10:19:29;;;;;;;8.00;6.47;;;9.00;68.30;;;8.00;63.00;97887.50;5043113;28;20434;-82
2022/02/24 10:22:07;;;;;;;8.13;6.60;;;9.20;68.20;;;8.05;62.19;97871.56;5052693;28;20897;-83
2022/02/24 10:24:34;;;;;;;8.40;6.50;;;9.30;67.70;;;8.38;61.31;97883.44;5049285;28;20433;-83
2022/02/24 10:27:22;;;;;;;10.37;6.60;;;9.50;67.60;;;8.57;60.90;97863.81;5038117;28;20493;-82
2022/02/24 10:30:08;;;;;;;11.90;8.00;;;9.80;67.10;;;8.47;61.48;97861.50;5036833;28;20427;-83